sensor_id;sensor_type;location;lat;lon;timestamp;P1;durP1;ratioP1;P2;durP2;ratioP2
16760;SDS011;8498;52.516;13.790;2023-05-07T00:01:12;20.30;;;10.30;;
16760;SDS011;8498;52.516;13.790;2023-05-07T00:06:34;18.50;;;10.40;;
16760;SDS011;8498;52.516;13.790;2023-05-07T00:11:57;21.23;;;10.23;;
16760;SDS011;8498;52.516;13.790;2023-05-07T00:17:19;20.23;;;10.17;;
16760;SDS011;8498;52.516;13.790;2023-05-07T00:22:42;14.33;;;9.47;;
16760;SDS011;8498;52.516;13.790;2023-05-07T00:28:04;18.73;;;9.57;;
16760;SDS011;8498;52.516;13.790;2023-05-07T00:33:27;18.70;;;11.03;;
16760;SDS011;8498;52.516;13.790;2023-05-07T00:38:49;17.27;;;10.10;;
16760;SDS011;8498;52.516;13.790;2023-05-07T00:44:12;19.37;;;10.23;;
16760;SDS011;8498;52.516;13.790;2023-05-07T00:49:38;16.07;;;9.70;;
16760;SDS011;8498;52.516;13.790;2023-05-07T00:55:04;16.70;;;10.00;;
16760;SDS011;8498;52.516;13.790;2023-05-07T01:00:28;17.03;;;10.73;;
16760;SDS011;8498;52.516;13.790;2023-05-07T01:05:50;17.27;;;10.47;;
16760;SDS011;8498;52.516;13.790;2023-05-07T01:11:16;18.17;;;10.97;;
16760;SDS011;8498;52.516;13.790;2023-05-07T01:16:41;19.77;;;10.60;;
16760;SDS011;8498;52.516;13.790;2023-05-07T01:22:07;15.53;;;10.37;;
16760;SDS011;8498;52.516;13.790;2023-05-07T01:27:40;19.13;;;10.40;;
16760;SDS011;8498;52.516;13.790;2023-05-07T01:33:04;20.60;;;10.90;;
16760;SDS011;8498;52.516;13.790;2023-05-07T01:38:31;16.20;;;10.33;;
16760;SDS011;8498;52.516;13.790;2023-05-07T01:43:54;18.60;;;10.73;;
16760;SDS011;8498;52.516;13.790;2023-05-07T01:49:20;17.23;;;10.80;;
16760;SDS011;8498;52.516;13.790;2023-05-07T01:54:43;17.00;;;10.37;;
16760;SDS011;8498;52.516;13.790;2023-05-07T02:00:05;17.27;;;10.70;;
16760;SDS011;8498;52.516;13.790;2023-05-07T02:05:36;18.20;;;10.57;;
16760;SDS011;8498;52.516;13.790;2023-05-07T02:11:08;15.97;;;9.90;;
16760;SDS011;8498;52.516;13.790;2023-05-07T02:16:31;18.50;;;9.97;;
16760;SDS011;8498;52.516;13.790;2023-05-07T02:21:54;17.93;;;10.07;;
16760;SDS011;8498;52.516;13.790;2023-05-07T02:27:16;18.03;;;9.73;;
16760;SDS011;8498;52.516;13.790;2023-05-07T02:32:39;17.33;;;10.17;;
16760;SDS011;8498;52.516;13.790;2023-05-07T02:38:01;15.90;;;9.70;;
16760;SDS011;8498;52.516;13.790;2023-05-07T02:43:25;15.30;;;10.07;;
16760;SDS011;8498;52.516;13.790;2023-05-07T02:48:47;17.80;;;10.07;;
16760;SDS011;8498;52.516;13.790;2023-05-07T02:54:10;16.23;;;9.37;;
16760;SDS011;8498;52.516;13.790;2023-05-07T02:59:32;15.30;;;8.90;;
16760;SDS011;8498;52.516;13.790;2023-05-07T03:04:54;14.83;;;9.77;;
16760;SDS011;8498;52.516;13.790;2023-05-07T03:10:17;17.70;;;8.87;;
16760;SDS011;8498;52.516;13.790;2023-05-07T03:15:40;12.83;;;8.83;;
16760;SDS011;8498;52.516;13.790;2023-05-07T03:21:03;15.83;;;8.97;;
16760;SDS011;8498;52.516;13.790;2023-05-07T03:26:25;16.17;;;9.20;;
16760;SDS011;8498;52.516;13.790;2023-05-07T03:31:48;16.07;;;8.53;;
16760;SDS011;8498;52.516;13.790;2023-05-07T03:37:11;17.93;;;8.63;;
16760;SDS011;8498;52.516;13.790;2023-05-07T03:42:33;15.67;;;9.13;;
16760;SDS011;8498;52.516;13.790;2023-05-07T03:47:56;14.23;;;8.93;;
16760;SDS011;8498;52.516;13.790;2023-05-07T03:53:18;17.33;;;9.07;;
16760;SDS011;8498;52.516;13.790;2023-05-07T03:58:41;14.40;;;8.33;;
16760;SDS011;8498;52.516;13.790;2023-05-07T04:04:05;14.17;;;8.17;;
16760;SDS011;8498;52.516;13.790;2023-05-07T04:09:30;12.40;;;7.40;;
16760;SDS011;8498;52.516;13.790;2023-05-07T04:14:53;16.57;;;8.33;;
16760;SDS011;8498;52.516;13.790;2023-05-07T04:20:16;12.23;;;8.00;;
16760;SDS011;8498;52.516;13.790;2023-05-07T04:25:43;12.10;;;7.80;;
16760;SDS011;8498;52.516;13.790;2023-05-07T04:31:14;12.63;;;8.17;;
16760;SDS011;8498;52.516;13.790;2023-05-07T04:36:42;14.07;;;7.73;;
16760;SDS011;8498;52.516;13.790;2023-05-07T04:42:07;16.13;;;8.03;;
16760;SDS011;8498;52.516;13.790;2023-05-07T04:47:36;12.83;;;7.53;;
16760;SDS011;8498;52.516;13.790;2023-05-07T04:52:59;16.93;;;8.60;;
16760;SDS011;8498;52.516;13.790;2023-05-07T04:58:22;12.07;;;7.37;;
16760;SDS011;8498;52.516;13.790;2023-05-07T05:03:44;13.70;;;8.53;;
16760;SDS011;8498;52.516;13.790;2023-05-07T05:09:07;15.43;;;7.93;;
16760;SDS011;8498;52.516;13.790;2023-05-07T05:14:29;13.93;;;8.63;;
16760;SDS011;8498;52.516;13.790;2023-05-07T05:19:54;12.83;;;8.13;;
16760;SDS011;8498;52.516;13.790;2023-05-07T05:25:18;17.43;;;9.53;;
16760;SDS011;8498;52.516;13.790;2023-05-07T05:30:41;17.17;;;7.87;;
16760;SDS011;8498;52.516;13.790;2023-05-07T05:36:04;16.20;;;8.50;;
16760;SDS011;8498;52.516;13.790;2023-05-07T05:41:27;15.80;;;8.40;;
16760;SDS011;8498;52.516;13.790;2023-05-07T05:46:50;12.67;;;8.03;;
16760;SDS011;8498;52.516;13.790;2023-05-07T05:52:13;15.63;;;8.47;;
16760;SDS011;8498;52.516;13.790;2023-05-07T05:57:36;13.10;;;8.03;;
16760;SDS011;8498;52.516;13.790;2023-05-07T06:02:59;14.03;;;7.80;;
16760;SDS011;8498;52.516;13.790;2023-05-07T06:08:22;12.67;;;7.53;;
16760;SDS011;8498;52.516;13.790;2023-05-07T06:13:44;11.70;;;7.13;;
16760;SDS011;8498;52.516;13.790;2023-05-07T06:19:07;18.93;;;8.30;;
16760;SDS011;8498;52.516;13.790;2023-05-07T06:24:30;13.13;;;6.63;;
16760;SDS011;8498;52.516;13.790;2023-05-07T06:29:52;14.10;;;7.47;;
16760;SDS011;8498;52.516;13.790;2023-05-07T06:35:16;10.17;;;7.03;;
16760;SDS011;8498;52.516;13.790;2023-05-07T06:40:38;12.00;;;7.20;;
16760;SDS011;8498;52.516;13.790;2023-05-07T06:46:03;11.43;;;6.90;;
16760;SDS011;8498;52.516;13.790;2023-05-07T06:51:25;9.83;;;6.60;;
16760;SDS011;8498;52.516;13.790;2023-05-07T06:56:50;11.00;;;6.50;;
16760;SDS011;8498;52.516;13.790;2023-05-07T07:02:12;9.03;;;6.17;;
16760;SDS011;8498;52.516;13.790;2023-05-07T07:07:37;10.80;;;6.50;;
16760;SDS011;8498;52.516;13.790;2023-05-07T07:13:00;10.17;;;5.80;;
16760;SDS011;8498;52.516;13.790;2023-05-07T07:18:25;8.90;;;5.10;;
16760;SDS011;8498;52.516;13.790;2023-05-07T07:23:48;9.07;;;6.10;;
16760;SDS011;8498;52.516;13.790;2023-05-07T07:29:11;7.13;;;5.60;;
16760;SDS011;8498;52.516;13.790;2023-05-07T07:34:37;8.70;;;5.30;;
16760;SDS011;8498;52.516;13.790;2023-05-07T07:39:59;6.23;;;4.77;;
16760;SDS011;8498;52.516;13.790;2023-05-07T07:45:22;6.57;;;4.50;;
16760;SDS011;8498;52.516;13.790;2023-05-07T07:50:48;5.70;;;4.30;;
16760;SDS011;8498;52.516;13.790;2023-05-07T07:56:13;9.40;;;4.63;;
16760;SDS011;8498;52.516;13.790;2023-05-07T08:01:35;6.50;;;3.97;;
16760;SDS011;8498;52.516;13.790;2023-05-07T08:06:58;5.73;;;4.40;;
16760;SDS011;8498;52.516;13.790;2023-05-07T08:12:21;5.10;;;3.63;;
16760;SDS011;8498;52.516;13.790;2023-05-07T08:17:43;5.77;;;3.67;;
16760;SDS011;8498;52.516;13.790;2023-05-07T08:23:06;3.93;;;3.30;;
16760;SDS011;8498;52.516;13.790;2023-05-07T08:28:29;5.17;;;3.60;;
16760;SDS011;8498;52.516;13.790;2023-05-07T08:33:52;5.33;;;3.37;;
16760;SDS011;8498;52.516;13.790;2023-05-07T08:39:15;7.50;;;3.70;;
16760;SDS011;8498;52.516;13.790;2023-05-07T08:44:41;5.57;;;3.37;;
16760;SDS011;8498;52.516;13.790;2023-05-07T08:50:10;6.73;;;3.10;;
16760;SDS011;8498;52.516;13.790;2023-05-07T08:55:34;3.63;;;3.33;;
16760;SDS011;8498;52.516;13.790;2023-05-07T09:00:57;5.67;;;3.10;;
16760;SDS011;8498;52.516;13.790;2023-05-07T09:06:22;3.83;;;2.80;;
16760;SDS011;8498;52.516;13.790;2023-05-07T09:11:45;3.70;;;3.20;;
16760;SDS011;8498;52.516;13.790;2023-05-07T09:17:10;2.83;;;2.50;;
16760;SDS011;8498;52.516;13.790;2023-05-07T09:22:35;2.50;;;2.30;;
16760;SDS011;8498;52.516;13.790;2023-05-07T09:28:02;2.40;;;2.20;;
16760;SDS011;8498;52.516;13.790;2023-05-07T09:33:30;2.50;;;2.30;;
16760;SDS011;8498;52.516;13.790;2023-05-07T09:38:54;5.87;;;2.47;;
16760;SDS011;8498;52.516;13.790;2023-05-07T09:44:18;3.73;;;2.90;;
16760;SDS011;8498;52.516;13.790;2023-05-07T09:49:47;2.53;;;2.33;;
16760;SDS011;8498;52.516;13.790;2023-05-07T09:55:14;3.30;;;2.53;;
16760;SDS011;8498;52.516;13.790;2023-05-07T10:00:38;3.07;;;2.30;;
16760;SDS011;8498;52.516;13.790;2023-05-07T10:06:07;3.17;;;2.23;;
16760;SDS011;8498;52.516;13.790;2023-05-07T10:11:32;2.57;;;2.37;;
16760;SDS011;8498;52.516;13.790;2023-05-07T10:16:58;4.43;;;2.17;;
16760;SDS011;8498;52.516;13.790;2023-05-07T10:22:22;2.60;;;2.40;;
16760;SDS011;8498;52.516;13.790;2023-05-07T10:27:49;4.33;;;2.53;;
16760;SDS011;8498;52.516;13.790;2023-05-07T10:33:15;3.43;;;2.40;;
16760;SDS011;8498;52.516;13.790;2023-05-07T10:38:41;8.60;;;2.77;;
16760;SDS011;8498;52.516;13.790;2023-05-07T10:44:04;2.63;;;2.10;;
16760;SDS011;8498;52.516;13.790;2023-05-07T10:49:30;3.23;;;2.20;;
16760;SDS011;8498;52.516;13.790;2023-05-07T11:01:11;1.98;;;1.77;;
16760;SDS011;8498;52.516;13.790;2023-05-07T11:06:36;1.92;;;1.83;;
16760;SDS011;8498;52.516;13.790;2023-05-07T11:12:03;2.35;;;1.85;;
16760;SDS011;8498;52.516;13.790;2023-05-07T11:17:57;2.53;;;1.70;;
16760;SDS011;8498;52.516;13.790;2023-05-07T11:24:12;2.05;;;1.90;;
16760;SDS011;8498;52.516;13.790;2023-05-07T11:29:27;2.65;;;1.90;;
16760;SDS011;8498;52.516;13.790;2023-05-07T11:34:57;1.92;;;1.83;;
16760;SDS011;8498;52.516;13.790;2023-05-07T11:40:21;3.13;;;1.90;;
16760;SDS011;8498;52.516;13.790;2023-05-07T11:45:44;1.75;;;1.63;;
16760;SDS011;8498;52.516;13.790;2023-05-07T11:51:08;3.45;;;2.00;;
16760;SDS011;8498;52.516;13.790;2023-05-07T11:56:33;2.55;;;1.80;;
16760;SDS011;8498;52.516;13.790;2023-05-07T12:01:57;1.60;;;1.50;;
16760;SDS011;8498;52.516;13.790;2023-05-07T12:07:21;1.63;;;1.52;;
16760;SDS011;8498;52.516;13.790;2023-05-07T12:12:46;2.03;;;1.83;;
16760;SDS011;8498;52.516;13.790;2023-05-07T12:18:08;1.98;;;1.48;;
16760;SDS011;8498;52.516;13.790;2023-05-07T12:23:33;3.13;;;1.70;;
16760;SDS011;8498;52.516;13.790;2023-05-07T12:28:58;2.53;;;1.55;;
16760;SDS011;8498;52.516;13.790;2023-05-07T12:34:20;2.03;;;1.25;;
16760;SDS011;8498;52.516;13.790;2023-05-07T12:39:44;1.55;;;1.45;;
16760;SDS011;8498;52.516;13.790;2023-05-07T12:45:10;1.67;;;1.58;;
16760;SDS011;8498;52.516;13.790;2023-05-07T12:50:39;1.65;;;1.55;;
16760;SDS011;8498;52.516;13.790;2023-05-07T12:56:01;1.88;;;1.77;;
16760;SDS011;8498;52.516;13.790;2023-05-07T13:01:28;1.75;;;1.65;;
16760;SDS011;8498;52.516;13.790;2023-05-07T13:06:52;1.85;;;1.52;;
16760;SDS011;8498;52.516;13.790;2023-05-07T13:12:15;2.17;;;1.92;;
16760;SDS011;8498;52.516;13.790;2023-05-07T13:17:37;3.55;;;1.50;;
16760;SDS011;8498;52.516;13.790;2023-05-07T13:23:00;2.22;;;1.85;;
16760;SDS011;8498;52.516;13.790;2023-05-07T13:28:24;3.10;;;1.92;;
16760;SDS011;8498;52.516;13.790;2023-05-07T13:33:46;3.15;;;1.98;;
16760;SDS011;8498;52.516;13.790;2023-05-07T13:46:17;1.95;;;1.77;;
16760;SDS011;8498;52.516;13.790;2023-05-07T13:51:40;2.47;;;1.70;;
16760;SDS011;8498;52.516;13.790;2023-05-07T13:57:02;4.90;;;1.60;;
16760;SDS011;8498;52.516;13.790;2023-05-07T14:02:25;1.60;;;1.40;;
16760;SDS011;8498;52.516;13.790;2023-05-07T14:07:48;1.85;;;1.70;;
16760;SDS011;8498;52.516;13.790;2023-05-07T14:13:13;1.58;;;1.42;;
16760;SDS011;8498;52.516;13.790;2023-05-07T14:18:36;2.70;;;1.65;;
16760;SDS011;8498;52.516;13.790;2023-05-07T14:24:00;2.75;;;1.30;;
16760;SDS011;8498;52.516;13.790;2023-05-07T14:29:23;1.30;;;1.20;;
16760;SDS011;8498;52.516;13.790;2023-05-07T14:34:45;2.50;;;1.35;;
16760;SDS011;8498;52.516;13.790;2023-05-07T14:40:08;2.78;;;1.38;;
16760;SDS011;8498;52.516;13.790;2023-05-07T14:45:31;1.45;;;1.30;;
16760;SDS011;8498;52.516;13.790;2023-05-07T14:50:54;1.70;;;0.95;;
16760;SDS011;8498;52.516;13.790;2023-05-07T14:56:16;1.40;;;1.30;;
16760;SDS011;8498;52.516;13.790;2023-05-07T15:01:39;2.15;;;1.30;;
16760;SDS011;8498;52.516;13.790;2023-05-07T15:07:05;2.92;;;1.38;;
16760;SDS011;8498;52.516;13.790;2023-05-07T15:12:27;1.73;;;1.60;;
16760;SDS011;8498;52.516;13.790;2023-05-07T15:17:49;1.33;;;1.25;;
16760;SDS011;8498;52.516;13.790;2023-05-07T15:23:12;1.40;;;1.30;;
16760;SDS011;8498;52.516;13.790;2023-05-07T15:28:39;4.18;;;1.35;;
16760;SDS011;8498;52.516;13.790;2023-05-07T15:34:02;2.40;;;1.50;;
16760;SDS011;8498;52.516;13.790;2023-05-07T15:39:24;1.58;;;1.48;;
16760;SDS011;8498;52.516;13.790;2023-05-07T15:44:47;1.60;;;1.50;;
16760;SDS011;8498;52.516;13.790;2023-05-07T15:50:10;5.00;;;2.47;;
16760;SDS011;8498;52.516;13.790;2023-05-07T15:55:33;1.80;;;1.70;;
16760;SDS011;8498;52.516;13.790;2023-05-07T16:00:56;2.30;;;1.48;;
16760;SDS011;8498;52.516;13.790;2023-05-07T16:06:18;4.60;;;2.10;;
16760;SDS011;8498;52.516;13.790;2023-05-07T16:11:41;6.63;;;3.90;;
16760;SDS011;8498;52.516;13.790;2023-05-07T16:17:03;2.50;;;1.67;;
16760;SDS011;8498;52.516;13.790;2023-05-07T16:22:25;2.50;;;1.75;;
16760;SDS011;8498;52.516;13.790;2023-05-07T16:27:51;1.60;;;1.50;;
16760;SDS011;8498;52.516;13.790;2023-05-07T16:33:13;1.52;;;1.45;;
16760;SDS011;8498;52.516;13.790;2023-05-07T16:38:36;2.70;;;1.70;;
16760;SDS011;8498;52.516;13.790;2023-05-07T16:43:59;1.60;;;1.50;;
16760;SDS011;8498;52.516;13.790;2023-05-07T16:49:24;1.45;;;1.35;;
16760;SDS011;8498;52.516;13.790;2023-05-07T16:54:47;3.00;;;1.63;;
16760;SDS011;8498;52.516;13.790;2023-05-07T17:00:09;3.40;;;1.97;;
16760;SDS011;8498;52.516;13.790;2023-05-07T17:05:33;2.10;;;1.70;;
16760;SDS011;8498;52.516;13.790;2023-05-07T17:10:55;2.00;;;1.90;;
16760;SDS011;8498;52.516;13.790;2023-05-07T17:16:17;2.47;;;1.60;;
16760;SDS011;8498;52.516;13.790;2023-05-07T17:21:40;1.50;;;1.40;;
16760;SDS011;8498;52.516;13.790;2023-05-07T17:27:02;1.97;;;1.73;;
16760;SDS011;8498;52.516;13.790;2023-05-07T17:32:25;1.63;;;1.53;;
16760;SDS011;8498;52.516;13.790;2023-05-07T17:37:48;3.07;;;1.73;;
16760;SDS011;8498;52.516;13.790;2023-05-07T17:43:13;3.80;;;2.30;;
16760;SDS011;8498;52.516;13.790;2023-05-07T17:48:36;2.63;;;2.27;;
16760;SDS011;8498;52.516;13.790;2023-05-07T17:53:59;3.43;;;1.87;;
16760;SDS011;8498;52.516;13.790;2023-05-07T17:59:21;1.83;;;1.70;;
16760;SDS011;8498;52.516;13.790;2023-05-07T18:04:44;2.03;;;1.80;;
16760;SDS011;8498;52.516;13.790;2023-05-07T18:10:06;1.53;;;1.43;;
16760;SDS011;8498;52.516;13.790;2023-05-07T18:15:30;1.60;;;1.50;;
16760;SDS011;8498;52.516;13.790;2023-05-07T18:20:52;1.90;;;1.80;;
16760;SDS011;8498;52.516;13.790;2023-05-07T18:26:14;3.27;;;1.63;;
16760;SDS011;8498;52.516;13.790;2023-05-07T18:31:37;1.80;;;1.70;;
16760;SDS011;8498;52.516;13.790;2023-05-07T18:36:59;2.57;;;2.00;;
16760;SDS011;8498;52.516;13.790;2023-05-07T18:42:22;2.07;;;1.73;;
16760;SDS011;8498;52.516;13.790;2023-05-07T18:47:45;3.83;;;2.03;;
16760;SDS011;8498;52.516;13.790;2023-05-07T18:53:08;2.40;;;1.70;;
16760;SDS011;8498;52.516;13.790;2023-05-07T18:58:30;1.80;;;1.67;;
16760;SDS011;8498;52.516;13.790;2023-05-07T19:03:55;2.00;;;1.83;;
16760;SDS011;8498;52.516;13.790;2023-05-07T19:09:18;1.90;;;1.80;;
16760;SDS011;8498;52.516;13.790;2023-05-07T19:14:41;1.73;;;1.63;;
16760;SDS011;8498;52.516;13.790;2023-05-07T19:20:03;2.20;;;1.83;;
16760;SDS011;8498;52.516;13.790;2023-05-07T19:25:31;1.77;;;1.67;;
16760;SDS011;8498;52.516;13.790;2023-05-07T19:30:56;2.67;;;1.87;;
16760;SDS011;8498;52.516;13.790;2023-05-07T19:36:19;1.90;;;1.80;;
16760;SDS011;8498;52.516;13.790;2023-05-07T19:41:41;3.23;;;2.20;;
16760;SDS011;8498;52.516;13.790;2023-05-07T19:47:03;2.60;;;2.00;;
16760;SDS011;8498;52.516;13.790;2023-05-07T19:52:27;2.10;;;2.00;;
16760;SDS011;8498;52.516;13.790;2023-05-07T19:57:49;2.03;;;1.60;;
16760;SDS011;8498;52.516;13.790;2023-05-07T20:03:11;2.30;;;2.00;;
16760;SDS011;8498;52.516;13.790;2023-05-07T20:08:39;2.10;;;2.00;;
16760;SDS011;8498;52.516;13.790;2023-05-07T20:14:01;2.73;;;1.93;;
16760;SDS011;8498;52.516;13.790;2023-05-07T20:19:26;1.90;;;1.80;;
16760;SDS011;8498;52.516;13.790;2023-05-07T20:24:49;2.40;;;2.03;;
16760;SDS011;8498;52.516;13.790;2023-05-07T20:30:11;2.37;;;2.10;;
16760;SDS011;8498;52.516;13.790;2023-05-07T20:35:35;3.60;;;2.20;;
16760;SDS011;8498;52.516;13.790;2023-05-07T20:41:04;2.70;;;2.50;;
16760;SDS011;8498;52.516;13.790;2023-05-07T20:46:30;3.00;;;2.70;;
16760;SDS011;8498;52.516;13.790;2023-05-07T20:51:53;2.70;;;2.50;;
16760;SDS011;8498;52.516;13.790;2023-05-07T20:57:15;3.63;;;3.07;;
16760;SDS011;8498;52.516;13.790;2023-05-07T21:02:38;4.47;;;3.10;;
16760;SDS011;8498;52.516;13.790;2023-05-07T21:08:00;3.27;;;2.97;;
16760;SDS011;8498;52.516;13.790;2023-05-07T21:13:23;4.37;;;2.90;;
16760;SDS011;8498;52.516;13.790;2023-05-07T21:18:46;7.70;;;3.50;;
16760;SDS011;8498;52.516;13.790;2023-05-07T21:24:08;3.60;;;3.03;;
16760;SDS011;8498;52.516;13.790;2023-05-07T21:29:30;3.63;;;3.00;;
16760;SDS011;8498;52.516;13.790;2023-05-07T21:34:53;3.97;;;3.07;;
16760;SDS011;8498;52.516;13.790;2023-05-07T21:40:15;3.70;;;2.90;;
16760;SDS011;8498;52.516;13.790;2023-05-07T21:45:37;5.43;;;3.30;;
16760;SDS011;8498;52.516;13.790;2023-05-07T21:51:01;3.70;;;3.40;;
16760;SDS011;8498;52.516;13.790;2023-05-07T21:56:25;4.73;;;3.17;;
16760;SDS011;8498;52.516;13.790;2023-05-07T22:01:47;3.77;;;3.33;;
16760;SDS011;8498;52.516;13.790;2023-05-07T22:07:10;6.27;;;3.77;;
16760;SDS011;8498;52.516;13.790;2023-05-07T22:12:32;4.37;;;3.97;;
16760;SDS011;8498;52.516;13.790;2023-05-07T22:17:54;6.93;;;4.00;;
16760;SDS011;8498;52.516;13.790;2023-05-07T22:23:17;4.70;;;4.03;;
16760;SDS011;8498;52.516;13.790;2023-05-07T22:28:39;5.47;;;4.03;;
16760;SDS011;8498;52.516;13.790;2023-05-07T22:34:02;4.07;;;3.60;;
16760;SDS011;8498;52.516;13.790;2023-05-07T22:39:24;4.50;;;3.97;;
16760;SDS011;8498;52.516;13.790;2023-05-07T22:44:46;5.17;;;3.93;;
16760;SDS011;8498;52.516;13.790;2023-05-07T22:50:12;6.67;;;4.40;;
16760;SDS011;8498;52.516;13.790;2023-05-07T22:55:34;7.97;;;4.77;;
16760;SDS011;8498;52.516;13.790;2023-05-07T23:00:57;5.83;;;4.73;;
16760;SDS011;8498;52.516;13.790;2023-05-07T23:06:20;6.83;;;4.73;;
16760;SDS011;8498;52.516;13.790;2023-05-07T23:11:43;8.90;;;4.70;;
16760;SDS011;8498;52.516;13.790;2023-05-07T23:17:05;6.27;;;4.50;;
16760;SDS011;8498;52.516;13.790;2023-05-07T23:22:28;6.10;;;4.63;;
16760;SDS011;8498;52.516;13.790;2023-05-07T23:27:50;5.57;;;4.60;;
16760;SDS011;8498;52.516;13.790;2023-05-07T23:33:12;5.97;;;4.50;;
16760;SDS011;8498;52.516;13.790;2023-05-07T23:38:35;6.87;;;4.67;;
16760;SDS011;8498;52.516;13.790;2023-05-07T23:43:57;6.00;;;4.33;;
16760;SDS011;8498;52.516;13.790;2023-05-07T23:49:19;6.47;;;4.27;;
16760;SDS011;8498;52.516;13.790;2023-05-07T23:54:42;6.47;;;4.73;;
